sensor_id;sensor_type;location;lat;lon;timestamp;temperature;humidity
52565;DHT22;38460;53.106;7.004;2023-04-24T00:00:09;10.80;99.90
52565;DHT22;38460;53.106;7.004;2023-04-24T00:02:36;10.70;99.90
52565;DHT22;38460;53.106;7.004;2023-04-24T00:05:06;10.70;99.90
52565;DHT22;38460;53.106;7.004;2023-04-24T00:07:32;10.60;99.90
52565;DHT22;38460;53.106;7.004;2023-04-24T00:09:58;10.60;99.90
52565;DHT22;38460;53.106;7.004;2023-04-24T00:12:24;10.50;99.90
52565;DHT22;38460;53.106;7.004;2023-04-24T00:14:51;10.50;99.90
52565;DHT22;38460;53.106;7.004;2023-04-24T00:17:17;10.40;99.90
52565;DHT22;38460;53.106;7.004;2023-04-24T00:19:46;10.40;99.90
52565;DHT22;38460;53.106;7.004;2023-04-24T00:22:12;10.40;99.90
52565;DHT22;38460;53.106;7.004;2023-04-24T00:24:39;10.30;99.90
52565;DHT22;38460;53.106;7.004;2023-04-24T00:27:05;10.30;99.90
52565;DHT22;38460;53.106;7.004;2023-04-24T00:29:30;10.20;99.90
52565;DHT22;38460;53.106;7.004;2023-04-24T00:31:56;10.20;99.90
52565;DHT22;38460;53.106;7.004;2023-04-24T00:34:22;10.20;99.90
52565;DHT22;38460;53.106;7.004;2023-04-24T00:36:48;10.20;99.90
52565;DHT22;38460;53.106;7.004;2023-04-24T00:39:20;10.10;99.90
52565;DHT22;38460;53.106;7.004;2023-04-24T00:41:46;10.10;99.90
52565;DHT22;38460;53.106;7.004;2023-04-24T00:44:13;10.10;99.90
52565;DHT22;38460;53.106;7.004;2023-04-24T00:46:40;10.10;99.90
52565;DHT22;38460;53.106;7.004;2023-04-24T00:49:06;10.10;99.90
52565;DHT22;38460;53.106;7.004;2023-04-24T00:51:32;10.00;99.90
52565;DHT22;38460;53.106;7.004;2023-04-24T00:53:59;10.10;99.90
52565;DHT22;38460;53.106;7.004;2023-04-24T00:56:26;10.00;99.90
52565;DHT22;38460;53.106;7.004;2023-04-24T00:58:51;10.00;99.90
52565;DHT22;38460;53.106;7.004;2023-04-24T01:01:20;10.00;99.90
52565;DHT22;38460;53.106;7.004;2023-04-24T01:03:46;10.00;99.90
52565;DHT22;38460;53.106;7.004;2023-04-24T01:06:13;10.00;99.90
52565;DHT22;38460;53.106;7.004;2023-04-24T01:08:40;10.00;99.90
52565;DHT22;38460;53.106;7.004;2023-04-24T01:11:06;9.90;99.90
52565;DHT22;38460;53.106;7.004;2023-04-24T01:13:33;10.00;99.90
52565;DHT22;38460;53.106;7.004;2023-04-24T01:15:59;9.90;99.90
52565;DHT22;38460;53.106;7.004;2023-04-24T01:18:25;9.90;99.90
52565;DHT22;38460;53.106;7.004;2023-04-24T01:20:54;9.90;99.90
52565;DHT22;38460;53.106;7.004;2023-04-24T01:23:22;9.90;99.90
52565;DHT22;38460;53.106;7.004;2023-04-24T01:25:49;9.90;99.90
52565;DHT22;38460;53.106;7.004;2023-04-24T01:28:15;9.90;99.90
52565;DHT22;38460;53.106;7.004;2023-04-24T01:30:41;9.90;99.90
52565;DHT22;38460;53.106;7.004;2023-04-24T01:33:07;9.80;99.90
52565;DHT22;38460;53.106;7.004;2023-04-24T01:35:33;9.90;99.90
52565;DHT22;38460;53.106;7.004;2023-04-24T01:37:59;9.90;99.90
52565;DHT22;38460;53.106;7.004;2023-04-24T01:40:25;9.90;99.90
52565;DHT22;38460;53.106;7.004;2023-04-24T01:42:51;9.90;99.90
52565;DHT22;38460;53.106;7.004;2023-04-24T01:45:17;9.90;99.90
52565;DHT22;38460;53.106;7.004;2023-04-24T01:47:44;9.90;99.90
52565;DHT22;38460;53.106;7.004;2023-04-24T01:50:10;9.90;99.90
52565;DHT22;38460;53.106;7.004;2023-04-24T01:52:36;9.90;99.90
52565;DHT22;38460;53.106;7.004;2023-04-24T01:55:03;9.90;99.90
52565;DHT22;38460;53.106;7.004;2023-04-24T01:57:30;9.90;99.90
52565;DHT22;38460;53.106;7.004;2023-04-24T01:59:56;9.90;99.90
52565;DHT22;38460;53.106;7.004;2023-04-24T02:02:22;9.90;99.90
52565;DHT22;38460;53.106;7.004;2023-04-24T02:04:53;9.90;99.90
52565;DHT22;38460;53.106;7.004;2023-04-24T02:07:20;9.90;99.90
52565;DHT22;38460;53.106;7.004;2023-04-24T02:09:45;9.90;99.90
52565;DHT22;38460;53.106;7.004;2023-04-24T02:12:11;9.90;99.90
52565;DHT22;38460;53.106;7.004;2023-04-24T02:14:37;9.90;99.90
52565;DHT22;38460;53.106;7.004;2023-04-24T02:17:03;9.90;99.90
52565;DHT22;38460;53.106;7.004;2023-04-24T02:19:30;9.90;99.90
52565;DHT22;38460;53.106;7.004;2023-04-24T02:21:56;9.80;99.90
52565;DHT22;38460;53.106;7.004;2023-04-24T02:24:22;9.80;99.90
52565;DHT22;38460;53.106;7.004;2023-04-24T02:26:48;9.80;99.90
52565;DHT22;38460;53.106;7.004;2023-04-24T02:29:13;9.80;99.90
52565;DHT22;38460;53.106;7.004;2023-04-24T02:31:40;9.80;99.90
52565;DHT22;38460;53.106;7.004;2023-04-24T02:34:06;9.80;99.90
52565;DHT22;38460;53.106;7.004;2023-04-24T02:36:32;9.70;99.90
52565;DHT22;38460;53.106;7.004;2023-04-24T02:38:57;9.70;99.90
52565;DHT22;38460;53.106;7.004;2023-04-24T02:41:23;9.70;99.90
52565;DHT22;38460;53.106;7.004;2023-04-24T02:43:49;9.70;99.90
52565;DHT22;38460;53.106;7.004;2023-04-24T02:46:15;9.70;99.90
52565;DHT22;38460;53.106;7.004;2023-04-24T02:48:40;9.70;99.90
52565;DHT22;38460;53.106;7.004;2023-04-24T02:51:06;9.70;99.90
52565;DHT22;38460;53.106;7.004;2023-04-24T02:53:32;9.60;99.90
52565;DHT22;38460;53.106;7.004;2023-04-24T02:55:58;9.60;99.90
52565;DHT22;38460;53.106;7.004;2023-04-24T02:58:24;9.60;99.90
52565;DHT22;38460;53.106;7.004;2023-04-24T03:00:53;9.60;99.90
52565;DHT22;38460;53.106;7.004;2023-04-24T03:03:21;9.60;99.90
52565;DHT22;38460;53.106;7.004;2023-04-24T03:05:46;9.60;99.90
52565;DHT22;38460;53.106;7.004;2023-04-24T03:08:12;9.50;99.90
52565;DHT22;38460;53.106;7.004;2023-04-24T03:10:40;9.60;99.90
52565;DHT22;38460;53.106;7.004;2023-04-24T03:13:05;9.60;99.90
52565;DHT22;38460;53.106;7.004;2023-04-24T03:15:31;9.50;99.90
52565;DHT22;38460;53.106;7.004;2023-04-24T03:17:57;9.50;99.90
52565;DHT22;38460;53.106;7.004;2023-04-24T03:20:23;9.50;99.90
52565;DHT22;38460;53.106;7.004;2023-04-24T03:22:49;9.50;99.90
52565;DHT22;38460;53.106;7.004;2023-04-24T03:25:14;9.50;99.90
52565;DHT22;38460;53.106;7.004;2023-04-24T03:27:40;9.50;99.90
52565;DHT22;38460;53.106;7.004;2023-04-24T03:30:07;9.50;99.90
52565;DHT22;38460;53.106;7.004;2023-04-24T03:32:33;9.40;99.90
52565;DHT22;38460;53.106;7.004;2023-04-24T03:34:59;9.50;99.90
52565;DHT22;38460;53.106;7.004;2023-04-24T03:37:25;9.40;99.90
52565;DHT22;38460;53.106;7.004;2023-04-24T03:39:52;9.40;99.90
52565;DHT22;38460;53.106;7.004;2023-04-24T03:42:18;9.50;99.90
52565;DHT22;38460;53.106;7.004;2023-04-24T03:44:44;9.40;99.90
52565;DHT22;38460;53.106;7.004;2023-04-24T03:47:09;9.40;99.90
52565;DHT22;38460;53.106;7.004;2023-04-24T03:49:35;9.40;99.90
52565;DHT22;38460;53.106;7.004;2023-04-24T03:52:01;9.40;99.90
52565;DHT22;38460;53.106;7.004;2023-04-24T03:54:27;9.40;99.90
52565;DHT22;38460;53.106;7.004;2023-04-24T03:56:53;9.40;99.90
52565;DHT22;38460;53.106;7.004;2023-04-24T03:59:19;9.40;99.90
52565;DHT22;38460;53.106;7.004;2023-04-24T04:01:45;9.40;99.90
52565;DHT22;38460;53.106;7.004;2023-04-24T04:04:11;9.40;99.90
52565;DHT22;38460;53.106;7.004;2023-04-24T04:06:37;9.40;99.90
52565;DHT22;38460;53.106;7.004;2023-04-24T04:09:03;9.30;99.90
52565;DHT22;38460;53.106;7.004;2023-04-24T04:11:29;9.30;99.90
52565;DHT22;38460;53.106;7.004;2023-04-24T04:13:56;9.40;99.90
52565;DHT22;38460;53.106;7.004;2023-04-24T04:16:22;9.30;99.90
52565;DHT22;38460;53.106;7.004;2023-04-24T04:18:48;9.30;99.90
52565;DHT22;38460;53.106;7.004;2023-04-24T04:21:14;9.30;99.90
52565;DHT22;38460;53.106;7.004;2023-04-24T04:23:40;9.30;99.90
52565;DHT22;38460;53.106;7.004;2023-04-24T04:26:06;9.30;99.90
52565;DHT22;38460;53.106;7.004;2023-04-24T04:28:32;9.30;99.90
52565;DHT22;38460;53.106;7.004;2023-04-24T04:30:58;9.30;99.90
52565;DHT22;38460;53.106;7.004;2023-04-24T04:33:26;9.30;99.90
52565;DHT22;38460;53.106;7.004;2023-04-24T04:35:52;9.30;99.90
52565;DHT22;38460;53.106;7.004;2023-04-24T04:38:19;9.30;99.90
52565;DHT22;38460;53.106;7.004;2023-04-24T04:40:45;9.30;99.90
52565;DHT22;38460;53.106;7.004;2023-04-24T04:43:11;9.30;99.90
52565;DHT22;38460;53.106;7.004;2023-04-24T04:45:39;9.30;99.90
52565;DHT22;38460;53.106;7.004;2023-04-24T04:48:07;9.30;99.90
52565;DHT22;38460;53.106;7.004;2023-04-24T04:50:38;9.30;99.90
52565;DHT22;38460;53.106;7.004;2023-04-24T04:53:04;9.30;99.90
52565;DHT22;38460;53.106;7.004;2023-04-24T04:55:29;9.30;99.90
52565;DHT22;38460;53.106;7.004;2023-04-24T04:57:55;9.30;99.90
52565;DHT22;38460;53.106;7.004;2023-04-24T05:00:22;9.30;99.90
52565;DHT22;38460;53.106;7.004;2023-04-24T05:02:51;9.30;99.90
52565;DHT22;38460;53.106;7.004;2023-04-24T05:05:17;9.30;99.90
52565;DHT22;38460;53.106;7.004;2023-04-24T05:07:43;9.30;99.90
52565;DHT22;38460;53.106;7.004;2023-04-24T05:10:10;9.30;99.90
52565;DHT22;38460;53.106;7.004;2023-04-24T05:12:36;9.30;99.90
52565;DHT22;38460;53.106;7.004;2023-04-24T05:15:02;9.30;99.90
52565;DHT22;38460;53.106;7.004;2023-04-24T05:17:28;9.30;99.90
52565;DHT22;38460;53.106;7.004;2023-04-24T05:19:54;9.30;99.90
52565;DHT22;38460;53.106;7.004;2023-04-24T05:22:20;9.30;99.90
52565;DHT22;38460;53.106;7.004;2023-04-24T05:24:47;9.30;99.90
52565;DHT22;38460;53.106;7.004;2023-04-24T05:27:13;9.30;99.90
52565;DHT22;38460;53.106;7.004;2023-04-24T05:29:39;9.30;99.90
52565;DHT22;38460;53.106;7.004;2023-04-24T05:32:06;9.30;99.90
52565;DHT22;38460;53.106;7.004;2023-04-24T05:34:32;9.30;99.90
52565;DHT22;38460;53.106;7.004;2023-04-24T05:36:58;9.30;99.90
52565;DHT22;38460;53.106;7.004;2023-04-24T05:39:23;9.20;99.90
52565;DHT22;38460;53.106;7.004;2023-04-24T05:41:51;9.20;99.90
52565;DHT22;38460;53.106;7.004;2023-04-24T05:44:16;9.20;99.90
52565;DHT22;38460;53.106;7.004;2023-04-24T05:46:42;9.20;99.90
52565;DHT22;38460;53.106;7.004;2023-04-24T05:49:08;9.20;99.90
52565;DHT22;38460;53.106;7.004;2023-04-24T05:51:34;9.30;99.90
52565;DHT22;38460;53.106;7.004;2023-04-24T05:54:00;9.30;99.90
52565;DHT22;38460;53.106;7.004;2023-04-24T05:56:26;9.20;99.90
52565;DHT22;38460;53.106;7.004;2023-04-24T05:58:52;9.20;99.90
52565;DHT22;38460;53.106;7.004;2023-04-24T06:01:18;9.20;99.90
52565;DHT22;38460;53.106;7.004;2023-04-24T06:03:45;9.30;99.90
52565;DHT22;38460;53.106;7.004;2023-04-24T06:06:11;9.30;99.90
52565;DHT22;38460;53.106;7.004;2023-04-24T06:08:36;9.30;99.90
52565;DHT22;38460;53.106;7.004;2023-04-24T06:11:02;9.30;99.90
52565;DHT22;38460;53.106;7.004;2023-04-24T06:13:28;9.30;99.90
52565;DHT22;38460;53.106;7.004;2023-04-24T06:15:54;9.20;99.90
52565;DHT22;38460;53.106;7.004;2023-04-24T06:18:19;9.30;99.90
52565;DHT22;38460;53.106;7.004;2023-04-24T06:20:46;9.30;99.90
52565;DHT22;38460;53.106;7.004;2023-04-24T06:23:12;9.30;99.90
52565;DHT22;38460;53.106;7.004;2023-04-24T06:25:38;9.30;99.90
52565;DHT22;38460;53.106;7.004;2023-04-24T06:28:04;9.30;99.90
52565;DHT22;38460;53.106;7.004;2023-04-24T06:30:31;9.40;99.90
52565;DHT22;38460;53.106;7.004;2023-04-24T06:32:57;9.30;99.90
52565;DHT22;38460;53.106;7.004;2023-04-24T06:35:23;9.30;99.90
52565;DHT22;38460;53.106;7.004;2023-04-24T06:37:49;9.30;99.90
52565;DHT22;38460;53.106;7.004;2023-04-24T06:40:14;9.30;99.90
52565;DHT22;38460;53.106;7.004;2023-04-24T06:42:40;9.30;99.90
52565;DHT22;38460;53.106;7.004;2023-04-24T06:45:06;9.30;99.90
52565;DHT22;38460;53.106;7.004;2023-04-24T06:47:32;9.40;99.90
52565;DHT22;38460;53.106;7.004;2023-04-24T06:49:58;9.40;99.90
52565;DHT22;38460;53.106;7.004;2023-04-24T06:52:24;9.40;99.90
52565;DHT22;38460;53.106;7.004;2023-04-24T06:54:50;9.50;99.90
52565;DHT22;38460;53.106;7.004;2023-04-24T06:57:17;9.50;99.90
52565;DHT22;38460;53.106;7.004;2023-04-24T06:59:43;9.50;99.90
52565;DHT22;38460;53.106;7.004;2023-04-24T07:02:08;9.50;99.90
52565;DHT22;38460;53.106;7.004;2023-04-24T07:04:34;9.60;99.90
52565;DHT22;38460;53.106;7.004;2023-04-24T07:07:00;9.60;99.90
52565;DHT22;38460;53.106;7.004;2023-04-24T07:09:26;9.60;99.90
52565;DHT22;38460;53.106;7.004;2023-04-24T07:11:53;9.70;99.90
52565;DHT22;38460;53.106;7.004;2023-04-24T07:14:19;9.60;99.90
52565;DHT22;38460;53.106;7.004;2023-04-24T07:16:46;9.60;99.90
52565;DHT22;38460;53.106;7.004;2023-04-24T07:19:12;9.70;99.90
52565;DHT22;38460;53.106;7.004;2023-04-24T07:21:39;9.70;99.90
52565;DHT22;38460;53.106;7.004;2023-04-24T07:24:05;9.70;99.90
52565;DHT22;38460;53.106;7.004;2023-04-24T07:26:37;9.70;99.90
52565;DHT22;38460;53.106;7.004;2023-04-24T07:29:03;9.70;99.90
52565;DHT22;38460;53.106;7.004;2023-04-24T07:31:29;9.70;99.90
52565;DHT22;38460;53.106;7.004;2023-04-24T07:33:54;9.70;99.90
52565;DHT22;38460;53.106;7.004;2023-04-24T07:36:23;9.70;99.90
52565;DHT22;38460;53.106;7.004;2023-04-24T07:38:50;9.70;99.90
52565;DHT22;38460;53.106;7.004;2023-04-24T07:41:15;9.80;99.90
52565;DHT22;38460;53.106;7.004;2023-04-24T07:43:41;9.80;99.90
52565;DHT22;38460;53.106;7.004;2023-04-24T07:46:08;9.80;99.90
52565;DHT22;38460;53.106;7.004;2023-04-24T07:48:34;9.80;99.90
52565;DHT22;38460;53.106;7.004;2023-04-24T07:51:00;9.90;99.90
52565;DHT22;38460;53.106;7.004;2023-04-24T07:53:26;9.90;99.90
52565;DHT22;38460;53.106;7.004;2023-04-24T07:55:52;10.00;99.90
52565;DHT22;38460;53.106;7.004;2023-04-24T07:58:19;10.00;99.90
52565;DHT22;38460;53.106;7.004;2023-04-24T08:00:45;10.00;99.90
52565;DHT22;38460;53.106;7.004;2023-04-24T08:03:10;10.00;99.90
52565;DHT22;38460;53.106;7.004;2023-04-24T08:05:38;10.00;99.90
52565;DHT22;38460;53.106;7.004;2023-04-24T08:08:03;10.00;99.90
52565;DHT22;38460;53.106;7.004;2023-04-24T08:10:29;10.00;99.90
52565;DHT22;38460;53.106;7.004;2023-04-24T08:12:55;10.10;99.90
52565;DHT22;38460;53.106;7.004;2023-04-24T08:15:21;10.00;99.90
52565;DHT22;38460;53.106;7.004;2023-04-24T08:17:47;10.00;99.90
52565;DHT22;38460;53.106;7.004;2023-04-24T08:20:13;10.00;99.90
52565;DHT22;38460;53.106;7.004;2023-04-24T08:22:42;10.00;99.90
52565;DHT22;38460;53.106;7.004;2023-04-24T08:25:09;10.00;99.90
52565;DHT22;38460;53.106;7.004;2023-04-24T08:27:36;10.00;99.90
52565;DHT22;38460;53.106;7.004;2023-04-24T08:30:05;10.00;99.90
52565;DHT22;38460;53.106;7.004;2023-04-24T08:32:31;9.90;99.90
52565;DHT22;38460;53.106;7.004;2023-04-24T08:34:58;10.00;99.90
52565;DHT22;38460;53.106;7.004;2023-04-24T08:37:27;10.00;99.90
52565;DHT22;38460;53.106;7.004;2023-04-24T08:39:53;9.90;99.90
52565;DHT22;38460;53.106;7.004;2023-04-24T08:42:19;10.00;99.90
52565;DHT22;38460;53.106;7.004;2023-04-24T08:44:45;9.90;99.90
52565;DHT22;38460;53.106;7.004;2023-04-24T08:47:12;9.90;99.90
52565;DHT22;38460;53.106;7.004;2023-04-24T08:49:38;9.90;99.90
52565;DHT22;38460;53.106;7.004;2023-04-24T08:52:07;9.80;99.90
52565;DHT22;38460;53.106;7.004;2023-04-24T08:54:36;9.70;99.90
52565;DHT22;38460;53.106;7.004;2023-04-24T08:57:03;9.70;99.90
52565;DHT22;38460;53.106;7.004;2023-04-24T08:59:31;9.70;99.90
52565;DHT22;38460;53.106;7.004;2023-04-24T09:01:59;9.60;99.90
52565;DHT22;38460;53.106;7.004;2023-04-24T09:04:25;9.60;99.90
52565;DHT22;38460;53.106;7.004;2023-04-24T09:06:56;9.60;99.90
52565;DHT22;38460;53.106;7.004;2023-04-24T09:09:23;9.50;99.90
52565;DHT22;38460;53.106;7.004;2023-04-24T09:11:50;9.50;99.90
52565;DHT22;38460;53.106;7.004;2023-04-24T09:14:17;9.50;99.90
52565;DHT22;38460;53.106;7.004;2023-04-24T09:16:43;9.50;99.90
52565;DHT22;38460;53.106;7.004;2023-04-24T09:19:09;9.50;99.90
52565;DHT22;38460;53.106;7.004;2023-04-24T09:21:35;9.50;99.90
52565;DHT22;38460;53.106;7.004;2023-04-24T09:24:06;9.40;99.90
52565;DHT22;38460;53.106;7.004;2023-04-24T09:26:35;9.40;99.90
52565;DHT22;38460;53.106;7.004;2023-04-24T09:29:03;9.40;99.90
52565;DHT22;38460;53.106;7.004;2023-04-24T09:31:29;9.40;99.90
52565;DHT22;38460;53.106;7.004;2023-04-24T09:33:56;9.40;99.90
52565;DHT22;38460;53.106;7.004;2023-04-24T09:36:39;9.30;99.90
52565;DHT22;38460;53.106;7.004;2023-04-24T09:39:14;9.30;99.90
52565;DHT22;38460;53.106;7.004;2023-04-24T09:41:50;9.20;99.90
52565;DHT22;38460;53.106;7.004;2023-04-24T09:44:18;9.20;99.90
52565;DHT22;38460;53.106;7.004;2023-04-24T09:46:53;9.20;99.90
52565;DHT22;38460;53.106;7.004;2023-04-24T09:49:30;9.10;99.90
52565;DHT22;38460;53.106;7.004;2023-04-24T09:52:11;9.10;99.90
52565;DHT22;38460;53.106;7.004;2023-04-24T09:54:37;9.00;99.90
52565;DHT22;38460;53.106;7.004;2023-04-24T09:57:04;9.00;99.90
52565;DHT22;38460;53.106;7.004;2023-04-24T09:59:30;9.00;99.90
52565;DHT22;38460;53.106;7.004;2023-04-24T10:01:56;8.90;99.90
52565;DHT22;38460;53.106;7.004;2023-04-24T10:04:28;8.90;99.90
52565;DHT22;38460;53.106;7.004;2023-04-24T10:06:56;8.90;99.90
52565;DHT22;38460;53.106;7.004;2023-04-24T10:09:24;9.00;99.90
52565;DHT22;38460;53.106;7.004;2023-04-24T10:11:52;8.90;99.90
52565;DHT22;38460;53.106;7.004;2023-04-24T10:14:20;8.90;99.90
52565;DHT22;38460;53.106;7.004;2023-04-24T10:16:47;8.90;99.90
52565;DHT22;38460;53.106;7.004;2023-04-24T10:19:17;8.90;99.90
52565;DHT22;38460;53.106;7.004;2023-04-24T10:21:46;8.90;99.90
52565;DHT22;38460;53.106;7.004;2023-04-24T10:24:16;8.90;99.90
52565;DHT22;38460;53.106;7.004;2023-04-24T10:26:44;8.90;99.90
52565;DHT22;38460;53.106;7.004;2023-04-24T10:29:11;8.90;99.90
52565;DHT22;38460;53.106;7.004;2023-04-24T10:31:38;8.90;99.90
52565;DHT22;38460;53.106;7.004;2023-04-24T10:34:05;8.90;99.90
52565;DHT22;38460;53.106;7.004;2023-04-24T10:36:33;8.80;99.90
52565;DHT22;38460;53.106;7.004;2023-04-24T10:39:01;8.80;99.90
52565;DHT22;38460;53.106;7.004;2023-04-24T10:41:30;8.80;99.90
52565;DHT22;38460;53.106;7.004;2023-04-24T10:44:09;8.80;99.90
52565;DHT22;38460;53.106;7.004;2023-04-24T10:46:36;8.80;99.90
52565;DHT22;38460;53.106;7.004;2023-04-24T10:49:06;8.80;99.90
52565;DHT22;38460;53.106;7.004;2023-04-24T10:51:48;8.80;99.90
52565;DHT22;38460;53.106;7.004;2023-04-24T10:55:07;8.80;99.90
52565;DHT22;38460;53.106;7.004;2023-04-24T11:00:09;8.80;99.90
52565;DHT22;38460;53.106;7.004;2023-04-24T11:02:38;8.90;99.90
52565;DHT22;38460;53.106;7.004;2023-04-24T11:05:04;9.00;99.90
52565;DHT22;38460;53.106;7.004;2023-04-24T11:10:47;9.00;99.90
52565;DHT22;38460;53.106;7.004;2023-04-24T11:13:22;9.10;99.90
52565;DHT22;38460;53.106;7.004;2023-04-24T11:18:41;9.10;99.90
52565;DHT22;38460;53.106;7.004;2023-04-24T11:21:16;9.10;99.90
52565;DHT22;38460;53.106;7.004;2023-04-24T11:23:42;9.10;99.90
52565;DHT22;38460;53.106;7.004;2023-04-24T11:26:12;9.10;99.90
52565;DHT22;38460;53.106;7.004;2023-04-24T11:28:49;9.20;99.90
52565;DHT22;38460;53.106;7.004;2023-04-24T11:31:38;9.30;99.90
52565;DHT22;38460;53.106;7.004;2023-04-24T11:34:12;9.30;99.90
52565;DHT22;38460;53.106;7.004;2023-04-24T11:36:40;9.30;99.90
52565;DHT22;38460;53.106;7.004;2023-04-24T11:39:08;9.30;99.90
52565;DHT22;38460;53.106;7.004;2023-04-24T11:41:34;9.30;99.90
52565;DHT22;38460;53.106;7.004;2023-04-24T11:44:01;9.30;99.90
52565;DHT22;38460;53.106;7.004;2023-04-24T11:46:30;9.20;99.90
52565;DHT22;38460;53.106;7.004;2023-04-24T11:48:57;9.30;99.90
52565;DHT22;38460;53.106;7.004;2023-04-24T11:51:24;9.20;99.90
52565;DHT22;38460;53.106;7.004;2023-04-24T11:53:55;9.20;99.90
52565;DHT22;38460;53.106;7.004;2023-04-24T11:56:24;9.20;99.90
52565;DHT22;38460;53.106;7.004;2023-04-24T11:58:53;9.20;99.90
52565;DHT22;38460;53.106;7.004;2023-04-24T12:01:20;9.20;99.90
52565;DHT22;38460;53.106;7.004;2023-04-24T12:03:50;9.30;99.90
52565;DHT22;38460;53.106;7.004;2023-04-24T12:06:17;9.30;99.90
52565;DHT22;38460;53.106;7.004;2023-04-24T12:08:46;9.40;99.90
52565;DHT22;38460;53.106;7.004;2023-04-24T12:11:15;9.40;99.90
52565;DHT22;38460;53.106;7.004;2023-04-24T12:13:41;9.40;99.90
52565;DHT22;38460;53.106;7.004;2023-04-24T12:16:07;9.40;99.90
52565;DHT22;38460;53.106;7.004;2023-04-24T12:18:32;9.40;99.90
52565;DHT22;38460;53.106;7.004;2023-04-24T12:23:47;9.40;99.90
52565;DHT22;38460;53.106;7.004;2023-04-24T12:26:17;9.40;99.90
52565;DHT22;38460;53.106;7.004;2023-04-24T12:28:47;9.40;99.90
52565;DHT22;38460;53.106;7.004;2023-04-24T12:31:14;9.40;99.90
52565;DHT22;38460;53.106;7.004;2023-04-24T12:33:40;9.40;99.90
52565;DHT22;38460;53.106;7.004;2023-04-24T12:36:06;9.40;99.90
52565;DHT22;38460;53.106;7.004;2023-04-24T12:38:32;9.30;99.90
52565;DHT22;38460;53.106;7.004;2023-04-24T12:41:13;9.30;99.90
52565;DHT22;38460;53.106;7.004;2023-04-24T12:43:38;9.30;99.90
52565;DHT22;38460;53.106;7.004;2023-04-24T12:46:15;9.30;99.90
52565;DHT22;38460;53.106;7.004;2023-04-24T12:48:41;9.20;99.90
52565;DHT22;38460;53.106;7.004;2023-04-24T12:51:07;9.20;99.90
52565;DHT22;38460;53.106;7.004;2023-04-24T12:53:33;9.20;99.90
52565;DHT22;38460;53.106;7.004;2023-04-24T12:55:58;9.20;99.90
52565;DHT22;38460;53.106;7.004;2023-04-24T12:58:24;9.10;99.90
52565;DHT22;38460;53.106;7.004;2023-04-24T13:00:50;9.10;99.90
52565;DHT22;38460;53.106;7.004;2023-04-24T13:03:16;9.10;99.90
52565;DHT22;38460;53.106;7.004;2023-04-24T13:05:43;9.10;99.90
52565;DHT22;38460;53.106;7.004;2023-04-24T13:08:09;9.20;99.90
52565;DHT22;38460;53.106;7.004;2023-04-24T13:10:35;9.20;99.90
52565;DHT22;38460;53.106;7.004;2023-04-24T13:13:01;9.30;99.90
52565;DHT22;38460;53.106;7.004;2023-04-24T13:15:27;9.30;99.90
52565;DHT22;38460;53.106;7.004;2023-04-24T13:17:52;9.30;99.90
52565;DHT22;38460;53.106;7.004;2023-04-24T13:20:18;9.40;99.90
52565;DHT22;38460;53.106;7.004;2023-04-24T13:22:44;9.40;99.90
52565;DHT22;38460;53.106;7.004;2023-04-24T13:25:10;9.50;99.90
52565;DHT22;38460;53.106;7.004;2023-04-24T13:27:38;9.40;99.90
52565;DHT22;38460;53.106;7.004;2023-04-24T13:30:05;9.50;99.90
52565;DHT22;38460;53.106;7.004;2023-04-24T13:32:32;9.50;99.90
52565;DHT22;38460;53.106;7.004;2023-04-24T13:34:58;9.50;99.90
52565;DHT22;38460;53.106;7.004;2023-04-24T13:37:24;9.60;99.90
52565;DHT22;38460;53.106;7.004;2023-04-24T13:39:50;9.50;99.90
52565;DHT22;38460;53.106;7.004;2023-04-24T13:42:16;9.60;99.90
52565;DHT22;38460;53.106;7.004;2023-04-24T13:44:42;9.50;99.90
52565;DHT22;38460;53.106;7.004;2023-04-24T13:47:08;9.50;99.90
52565;DHT22;38460;53.106;7.004;2023-04-24T13:49:33;9.50;99.90
52565;DHT22;38460;53.106;7.004;2023-04-24T13:51:59;9.40;99.90
52565;DHT22;38460;53.106;7.004;2023-04-24T13:54:25;9.40;99.90
52565;DHT22;38460;53.106;7.004;2023-04-24T13:56:51;9.30;99.90
52565;DHT22;38460;53.106;7.004;2023-04-24T13:59:19;9.30;99.90
52565;DHT22;38460;53.106;7.004;2023-04-24T14:01:45;9.30;99.90
52565;DHT22;38460;53.106;7.004;2023-04-24T14:04:11;9.30;99.90
52565;DHT22;38460;53.106;7.004;2023-04-24T14:06:37;9.30;99.90
52565;DHT22;38460;53.106;7.004;2023-04-24T14:09:03;9.30;99.90
52565;DHT22;38460;53.106;7.004;2023-04-24T14:11:29;9.30;99.90
52565;DHT22;38460;53.106;7.004;2023-04-24T14:13:55;9.30;99.90
52565;DHT22;38460;53.106;7.004;2023-04-24T14:16:24;9.30;99.90
52565;DHT22;38460;53.106;7.004;2023-04-24T14:18:50;9.30;99.90
52565;DHT22;38460;53.106;7.004;2023-04-24T14:21:16;9.30;99.90
52565;DHT22;38460;53.106;7.004;2023-04-24T14:23:41;9.30;99.90
52565;DHT22;38460;53.106;7.004;2023-04-24T14:26:07;9.40;99.90
52565;DHT22;38460;53.106;7.004;2023-04-24T14:28:33;9.30;99.90
52565;DHT22;38460;53.106;7.004;2023-04-24T14:30:59;9.30;99.90
52565;DHT22;38460;53.106;7.004;2023-04-24T14:33:25;9.30;99.90
52565;DHT22;38460;53.106;7.004;2023-04-24T14:35:51;9.30;99.90
52565;DHT22;38460;53.106;7.004;2023-04-24T14:38:17;9.30;99.90
52565;DHT22;38460;53.106;7.004;2023-04-24T14:40:43;9.30;99.90
52565;DHT22;38460;53.106;7.004;2023-04-24T14:43:08;9.20;99.90
52565;DHT22;38460;53.106;7.004;2023-04-24T14:45:34;9.20;99.90
52565;DHT22;38460;53.106;7.004;2023-04-24T14:48:00;9.20;99.90
52565;DHT22;38460;53.106;7.004;2023-04-24T14:50:26;9.10;99.90
52565;DHT22;38460;53.106;7.004;2023-04-24T14:52:54;9.10;99.90
52565;DHT22;38460;53.106;7.004;2023-04-24T14:55:23;9.00;99.90
52565;DHT22;38460;53.106;7.004;2023-04-24T14:57:49;8.90;99.90
52565;DHT22;38460;53.106;7.004;2023-04-24T15:00:15;8.90;99.90
52565;DHT22;38460;53.106;7.004;2023-04-24T15:02:42;8.90;99.90
52565;DHT22;38460;53.106;7.004;2023-04-24T15:05:10;8.90;99.90
52565;DHT22;38460;53.106;7.004;2023-04-24T15:07:37;8.90;99.90
52565;DHT22;38460;53.106;7.004;2023-04-24T15:10:03;8.80;99.90
52565;DHT22;38460;53.106;7.004;2023-04-24T15:12:29;8.80;99.90
52565;DHT22;38460;53.106;7.004;2023-04-24T15:14:55;8.80;99.90
52565;DHT22;38460;53.106;7.004;2023-04-24T15:17:21;8.90;99.90
52565;DHT22;38460;53.106;7.004;2023-04-24T15:19:46;9.00;99.90
52565;DHT22;38460;53.106;7.004;2023-04-24T15:22:12;9.10;99.90
52565;DHT22;38460;53.106;7.004;2023-04-24T15:24:38;9.10;99.90
52565;DHT22;38460;53.106;7.004;2023-04-24T15:27:04;9.20;99.90
52565;DHT22;38460;53.106;7.004;2023-04-24T15:29:30;9.30;99.90
52565;DHT22;38460;53.106;7.004;2023-04-24T15:31:56;9.30;99.90
52565;DHT22;38460;53.106;7.004;2023-04-24T15:34:21;9.30;99.90
52565;DHT22;38460;53.106;7.004;2023-04-24T15:36:47;9.30;99.90
52565;DHT22;38460;53.106;7.004;2023-04-24T15:39:13;9.30;99.90
52565;DHT22;38460;53.106;7.004;2023-04-24T15:41:39;9.30;99.90
52565;DHT22;38460;53.106;7.004;2023-04-24T15:44:04;9.30;99.90
52565;DHT22;38460;53.106;7.004;2023-04-24T15:46:30;9.30;99.90
52565;DHT22;38460;53.106;7.004;2023-04-24T15:48:56;9.30;99.90
52565;DHT22;38460;53.106;7.004;2023-04-24T15:51:22;9.30;99.90
52565;DHT22;38460;53.106;7.004;2023-04-24T15:53:48;9.30;99.90